Terminal Aerodrome Forecast
Issued by NWS

Home | Current Version | Previous Version | Text Only | Print | Product List | Glossary On
Versions: 1 2 3 4 5 6 7 8 9 10 11 12 13 14 15 16 17 18 19 20 21 22 23 24 25 26 27 28 29 30 31 32 33 34 35 36
000
FTUS43 KDMX 290520
TAFOTM
TAF
KOTM 290520Z 2906/3006 09007KT P6SM VCSH SCT050 BKN250
     FM290900 13004KT 5SM BR VCTS BKN050CB BKN150 BKN250
     FM291300 16007KT P6SM SCT015 BKN050 BKN140
     FM291700 12004KT P6SM VCTS SCT035CB BKN130
     FM300100 11003KT P6SM SCT035 BKN040 BKN130=

USA.gov is the U.S. government's official web portal to all federal, state and local government web resources and services.